createdAt,value
2022-09-30T00:01:32.897Z,99783.59
2022-09-30T00:04:00.304Z,99826.31
2022-09-30T00:06:29.802Z,99801.88
2022-09-30T00:08:58.351Z,99676.31
2022-09-30T00:11:31.280Z,99832.38
2022-09-30T00:13:59.042Z,99831.50
2022-09-30T00:16:29.890Z,99836.66
2022-09-30T00:18:58.058Z,99846.25
2022-09-30T00:21:25.380Z,99852.31
2022-09-30T00:23:52.728Z,99827.13
2022-09-30T00:26:22.016Z,99841.06
2022-09-30T00:28:57.958Z,99813.94
2022-09-30T00:31:28.111Z,99844.47
2022-09-30T00:34:07.430Z,99830.47
2022-09-30T00:36:39.326Z,99854.88
2022-09-30T00:39:08.460Z,99858.22
2022-09-30T00:41:35.763Z,99855.63
2022-09-30T00:44:02.739Z,99805.69
2022-09-30T00:46:44.322Z,99861.63
2022-09-30T00:49:17.772Z,99837.19
2022-09-30T00:51:54.212Z,99866.81
2022-09-30T00:54:29.162Z,99865.88
2022-09-30T00:57:00.539Z,99841.50
2022-09-30T00:59:31.981Z,99806.53
2022-09-30T01:02:01.239Z,99864.00
2022-09-30T01:04:31.563Z,99882.34
2022-09-30T01:07:17.110Z,99785.56
2022-09-30T01:09:44.933Z,99851.78
2022-09-30T01:12:19.377Z,99864.91
2022-09-30T01:14:48.704Z,99825.53
2022-09-30T01:17:15.915Z,99856.88
2022-09-30T01:20:19.859Z,99877.00
2022-09-30T01:23:07.497Z,99845.44
2022-09-30T01:26:00.672Z,99876.19
2022-09-30T01:28:27.622Z,99872.56
2022-09-30T01:31:12.809Z,99874.28
2022-09-30T01:33:42.543Z,99871.63
2022-09-30T01:36:12.663Z,99873.34
2022-09-30T01:38:58.027Z,99870.75
2022-09-30T01:41:36.261Z,99862.84
2022-09-30T01:44:31.810Z,99884.56
2022-09-30T01:47:21.394Z,99786.09
2022-09-30T01:50:01.710Z,99871.56
2022-09-30T01:53:03.590Z,99817.25
2022-09-30T01:56:02.747Z,99871.44
2022-09-30T01:58:36.189Z,99865.38
2022-09-30T02:01:08.775Z,99861.00
2022-09-30T02:03:45.759Z,99831.28
2022-09-30T02:06:19.229Z,99855.63
2022-09-30T02:09:01.063Z,99848.69
2022-09-30T02:11:32.935Z,99860.91
2022-09-30T02:14:09.040Z,99871.44
2022-09-30T02:16:53.672Z,99871.41
2022-09-30T02:19:38.846Z,99868.81
2022-09-30T02:22:20.344Z,99874.88
2022-09-30T02:24:53.166Z,99872.19
2022-09-30T02:27:27.154Z,99872.19
2022-09-30T02:29:59.294Z,99753.50
2022-09-30T02:32:38.943Z,99870.56
2022-09-30T02:35:11.899Z,99863.47
2022-09-30T02:37:46.000Z,99790.16
2022-09-30T02:40:22.152Z,99695.03
2022-09-30T02:42:49.449Z,99873.81
2022-09-30T02:45:21.469Z,99865.09
2022-09-30T02:47:54.526Z,99873.81
2022-09-30T02:50:47.306Z,99871.34
2022-09-30T02:53:28.083Z,99869.59
2022-09-30T02:56:14.843Z,99880.84
2022-09-30T02:58:43.562Z,99869.59
2022-09-30T03:01:16.065Z,99853.91
2022-09-30T03:03:54.271Z,99869.69
2022-09-30T03:06:21.653Z,99874.88
2022-09-30T03:08:48.821Z,99880.16
2022-09-30T03:11:18.872Z,99821.66
2022-09-30T03:14:16.625Z,99881.13
2022-09-30T03:17:02.495Z,99888.94
2022-09-30T03:19:54.599Z,99863.59
2022-09-30T03:22:25.263Z,99881.03
2022-09-30T03:24:58.869Z,99882.78
2022-09-30T03:27:32.655Z,99863.63
2022-09-30T03:30:05.557Z,99887.03
2022-09-30T03:32:52.671Z,99884.44
2022-09-30T03:35:34.734Z,99874.75
2022-09-30T03:38:12.789Z,99894.78
2022-09-30T03:40:51.253Z,99879.19
2022-09-30T03:43:47.818Z,99872.19
2022-09-30T03:46:30.461Z,99815.44
2022-09-30T03:49:01.996Z,99902.63
2022-09-30T03:51:30.253Z,99896.59
2022-09-30T03:53:58.691Z,99884.34
2022-09-30T03:56:31.810Z,99892.97
2022-09-30T03:58:59.308Z,99816.97
2022-09-30T04:01:26.355Z,99816.13
2022-09-30T04:03:54.452Z,99886.03
2022-09-30T04:06:23.939Z,99876.53
2022-09-30T04:08:51.621Z,99862.56
2022-09-30T04:11:18.586Z,99879.19
2022-09-30T04:13:45.588Z,99866.13
2022-09-30T04:16:12.755Z,99885.44
2022-09-30T04:18:40.013Z,99887.97
2022-09-30T04:21:08.955Z,99899.41
2022-09-30T04:23:37.342Z,99884.56
2022-09-30T04:26:05.722Z,99896.81
2022-09-30T04:28:33.680Z,99894.28
2022-09-30T04:31:02.323Z,99894.22
2022-09-30T04:33:29.893Z,99906.41
2022-09-30T04:35:58.341Z,99895.16
2022-09-30T04:38:26.343Z,99828.00
2022-09-30T04:40:57.371Z,99818.25
2022-09-30T04:43:25.218Z,99879.41
2022-09-30T04:45:53.115Z,99889.88
2022-09-30T04:48:22.806Z,99882.88
2022-09-30T04:50:50.922Z,99882.03
2022-09-30T04:53:18.803Z,99907.28
2022-09-30T04:55:46.612Z,99898.47
2022-09-30T04:58:13.844Z,99901.22
2022-09-30T05:00:40.989Z,99875.06
2022-09-30T05:03:08.124Z,99878.53
2022-09-30T05:05:35.120Z,99904.69
2022-09-30T05:08:06.180Z,99907.28
2022-09-30T05:10:33.210Z,99896.91
2022-09-30T05:13:00.486Z,99910.00
2022-09-30T05:15:27.797Z,99890.91
2022-09-30T05:17:54.834Z,99899.69
2022-09-30T05:20:22.057Z,99800.16
2022-09-30T05:22:55.360Z,99911.03
2022-09-30T05:25:23.797Z,99826.41
2022-09-30T05:27:51.591Z,99905.03
2022-09-30T05:30:18.755Z,99883.28
2022-09-30T05:32:46.496Z,99891.09
2022-09-30T05:35:13.590Z,99885.00
2022-09-30T05:37:40.819Z,99893.78
2022-09-30T05:40:08.700Z,99905.13
2022-09-30T05:42:37.187Z,99898.22
2022-09-30T05:45:06.733Z,99866.81
2022-09-30T05:47:34.448Z,99896.34
2022-09-30T05:50:01.603Z,99910.41
2022-09-30T05:52:29.273Z,99897.34
2022-09-30T05:54:57.794Z,99905.22
2022-09-30T05:57:25.743Z,99931.31
2022-09-30T05:59:52.789Z,99932.25
2022-09-30T06:02:19.901Z,99891.38
2022-09-30T06:04:47.012Z,99922.81
2022-09-30T06:07:14.041Z,99917.59
2022-09-30T06:09:41.064Z,99899.31
2022-09-30T06:12:08.344Z,99848.66
2022-09-30T06:14:35.322Z,99794.72
2022-09-30T06:17:02.434Z,99791.25
2022-09-30T06:19:30.502Z,99914.31
2022-09-30T06:21:58.295Z,99888.19
2022-09-30T06:24:25.493Z,99796.69
2022-09-30T06:26:52.554Z,99877.03
2022-09-30T06:29:19.780Z,99910.16
2022-09-30T06:31:46.835Z,99923.25
2022-09-30T06:34:13.866Z,99907.63
2022-09-30T06:36:40.932Z,99904.16
2022-09-30T06:39:11.526Z,99897.22
2022-09-30T06:41:42.550Z,99910.25
2022-09-30T06:44:12.348Z,99903.34
2022-09-30T06:46:51.788Z,99895.47
2022-09-30T06:49:20.967Z,99827.59
2022-09-30T06:51:48.082Z,99872.97
2022-09-30T06:54:15.153Z,99912.19
2022-09-30T06:56:42.628Z,99906.16
2022-09-30T06:59:09.743Z,99913.19
2022-09-30T07:01:36.797Z,99901.06
2022-09-30T07:04:09.598Z,99895.00
2022-09-30T07:06:39.175Z,99847.97
2022-09-30T07:09:07.428Z,99925.56
2022-09-30T07:11:34.779Z,99847.09
2022-09-30T07:14:01.739Z,99916.06
2022-09-30T07:16:28.819Z,99919.59
2022-09-30T07:18:56.097Z,99918.81
2022-09-30T07:21:23.185Z,99928.50
2022-09-30T07:23:52.949Z,99921.56
2022-09-30T07:26:22.105Z,99905.88
2022-09-30T07:28:50.347Z,99886.72
2022-09-30T07:31:32.610Z,99926.84
2022-09-30T07:34:00.474Z,99915.53
2022-09-30T07:36:32.520Z,99927.72
2022-09-30T07:39:14.947Z,99925.13
2022-09-30T07:41:43.948Z,99926.84
2022-09-30T07:44:14.919Z,99918.16
2022-09-30T07:46:43.246Z,99907.69
2022-09-30T07:49:14.902Z,99910.28
2022-09-30T07:51:45.963Z,99896.38
2022-09-30T07:54:17.281Z,99906.78
2022-09-30T07:59:38.067Z,99918.03
2022-09-30T08:02:06.966Z,99918.88
2022-09-30T08:04:34.509Z,99834.44
2022-09-30T08:07:02.614Z,99892.69
2022-09-30T08:09:31.432Z,99905.75
2022-09-30T08:11:58.817Z,99914.38
2022-09-30T08:14:27.758Z,99848.19
2022-09-30T08:16:56.914Z,99841.22
2022-09-30T08:19:25.246Z,99897.72
2022-09-30T08:21:55.904Z,99917.66
2022-09-30T08:24:24.463Z,99818.44
2022-09-30T08:26:52.716Z,99830.63
2022-09-30T08:29:35.806Z,99896.66
2022-09-30T08:32:07.181Z,99914.84
2022-09-30T08:34:35.954Z,99906.28
2022-09-30T08:37:08.820Z,99895.88
2022-09-30T08:39:38.018Z,99902.03
2022-09-30T08:42:35.982Z,99826.41
2022-09-30T08:45:38.630Z,99877.72
2022-09-30T08:48:52.907Z,99901.22
2022-09-30T08:51:53.183Z,99901.16
2022-09-30T08:54:26.139Z,99877.66
2022-09-30T08:56:56.631Z,99825.47
2022-09-30T08:59:40.889Z,99894.03
2022-09-30T09:02:24.666Z,99895.78
2022-09-30T09:04:52.807Z,99893.19
2022-09-30T09:07:34.868Z,99818.31
2022-09-30T09:10:30.542Z,99890.50
2022-09-30T09:13:25.550Z,99891.31
2022-09-30T09:15:55.436Z,99801.81
2022-09-30T09:18:41.016Z,99889.56
2022-09-30T09:21:27.223Z,99889.53
2022-09-30T09:23:57.995Z,99872.16
2022-09-30T09:26:27.016Z,99884.38
2022-09-30T09:29:20.225Z,99872.88
2022-09-30T09:31:48.456Z,99872.81
2022-09-30T09:34:15.962Z,99819.78
2022-09-30T09:36:55.467Z,99816.25
2022-09-30T09:39:22.614Z,99875.31
2022-09-30T09:42:27.035Z,99877.06
2022-09-30T09:45:00.084Z,99885.81
2022-09-30T09:47:27.098Z,99891.06
2022-09-30T09:49:58.420Z,99883.19
2022-09-30T09:52:25.393Z,99890.19
2022-09-30T09:54:56.728Z,99847.66
2022-09-30T09:57:32.426Z,99872.06
2022-09-30T10:00:31.300Z,99887.72
2022-09-30T10:03:04.322Z,99870.34
2022-09-30T10:05:39.712Z,99881.63
2022-09-30T10:08:21.896Z,99883.34
2022-09-30T10:10:50.460Z,99877.28
2022-09-30T10:13:26.599Z,99890.28
2022-09-30T10:15:59.509Z,99851.16
2022-09-30T10:18:35.201Z,99864.97
2022-09-30T10:21:08.043Z,99791.91
2022-09-30T10:23:39.088Z,99698.81
2022-09-30T10:26:15.329Z,99865.53
2022-09-30T10:28:51.882Z,99709.94
2022-09-30T10:31:38.932Z,99868.84
2022-09-30T10:34:24.980Z,99799.31
2022-09-30T10:36:53.597Z,99855.00
2022-09-30T10:39:34.669Z,99851.44
2022-09-30T10:42:21.262Z,99790.56
2022-09-30T10:44:56.761Z,99842.63
2022-09-30T10:47:26.694Z,99866.06
2022-09-30T10:50:05.490Z,99848.63
2022-09-30T10:52:36.003Z,99875.69
2022-09-30T10:55:14.686Z,99874.72
2022-09-30T10:57:42.771Z,99865.94
2022-09-30T11:00:21.789Z,99783.22
2022-09-30T11:02:50.599Z,99869.13
2022-09-30T11:05:30.934Z,99858.66
2022-09-30T11:08:17.032Z,99804.72
2022-09-30T11:10:49.677Z,99863.00
2022-09-30T11:13:35.371Z,99878.69
2022-09-30T11:16:08.673Z,99869.09
2022-09-30T11:18:50.372Z,99771.03
2022-09-30T11:21:35.733Z,99841.25
2022-09-30T11:24:08.672Z,99862.09
2022-09-30T11:26:44.841Z,99871.72
2022-09-30T11:29:14.785Z,99869.97
2022-09-30T11:31:50.639Z,99866.50
2022-09-30T11:34:20.756Z,99877.00
2022-09-30T11:37:02.929Z,99850.91
2022-09-30T11:39:51.444Z,99723.31
2022-09-30T11:42:40.725Z,99842.97
2022-09-30T11:45:16.868Z,99868.25
2022-09-30T11:47:53.683Z,99870.88
2022-09-30T11:50:48.827Z,99863.91
2022-09-30T11:53:37.273Z,99869.06
2022-09-30T11:56:21.137Z,99793.50
2022-09-30T11:58:51.725Z,99850.81
2022-09-30T12:01:26.869Z,99811.72
2022-09-30T12:04:34.387Z,99883.75
2022-09-30T12:07:26.347Z,99887.19
2022-09-30T12:10:05.713Z,99809.91
2022-09-30T12:12:32.934Z,99888.06
2022-09-30T12:15:03.125Z,99890.72
2022-09-30T12:17:40.840Z,99895.03
2022-09-30T12:20:25.820Z,99828.03
2022-09-30T12:23:11.360Z,99833.25
2022-09-30T12:25:46.089Z,99890.63
2022-09-30T12:28:45.446Z,99848.94
2022-09-30T12:31:52.179Z,99889.66
2022-09-30T12:34:51.757Z,99889.59
2022-09-30T12:37:31.309Z,99894.13
2022-09-30T12:40:22.607Z,99889.88
2022-09-30T12:43:22.392Z,99890.63
2022-09-30T12:46:20.862Z,99894.16
2022-09-30T12:48:54.246Z,99888.16
2022-09-30T12:51:33.555Z,99898.63
2022-09-30T12:54:29.088Z,99891.69
2022-09-30T12:57:03.992Z,99877.88
2022-09-30T12:59:36.394Z,99902.22
2022-09-30T13:02:06.478Z,99744.03
2022-09-30T13:04:39.453Z,99885.56
2022-09-30T13:07:17.276Z,99885.47
2022-09-30T13:10:02.574Z,99853.97
2022-09-30T13:12:41.947Z,99820.13
2022-09-30T13:15:31.115Z,99888.75
2022-09-30T13:18:20.639Z,99896.66
2022-09-30T13:20:56.740Z,99870.59
2022-09-30T13:23:42.751Z,99894.00
2022-09-30T13:26:28.312Z,99851.53
2022-09-30T13:29:16.440Z,99892.38
2022-09-30T13:31:49.976Z,99886.44
2022-09-30T13:34:26.574Z,99896.00
2022-09-30T13:36:53.644Z,99900.38
2022-09-30T13:39:22.468Z,99875.25
2022-09-30T13:41:55.715Z,99919.66
2022-09-30T13:44:40.465Z,99911.81
2022-09-30T13:47:39.198Z,99914.44
2022-09-30T13:50:23.919Z,99880.50
2022-09-30T13:52:56.749Z,99909.38
2022-09-30T13:55:34.056Z,99912.81
2022-09-30T13:58:28.725Z,99923.28
2022-09-30T14:01:08.637Z,99836.38
2022-09-30T14:03:54.486Z,99921.50
2022-09-30T14:06:45.597Z,99920.66
2022-09-30T14:09:23.979Z,99906.78
2022-09-30T14:12:13.666Z,99887.66
2022-09-30T14:15:03.301Z,99913.69
2022-09-30T14:17:37.032Z,99927.75
2022-09-30T14:20:27.292Z,99895.59
2022-09-30T14:22:54.515Z,99933.94
2022-09-30T14:25:21.839Z,99914.00
2022-09-30T14:27:57.114Z,99786.28
2022-09-30T14:30:25.971Z,99933.16
2022-09-30T14:33:18.925Z,99874.06
2022-09-30T14:35:46.268Z,99885.34
2022-09-30T14:38:25.259Z,99934.88
2022-09-30T14:40:55.824Z,99923.56
2022-09-30T14:43:32.736Z,99788.03
2022-09-30T14:46:06.340Z,99916.59
2022-09-30T14:48:37.827Z,99923.59
2022-09-30T14:51:10.784Z,99923.63
2022-09-30T14:53:55.558Z,99932.25
2022-09-30T14:56:30.181Z,99946.25
2022-09-30T14:59:00.057Z,99960.28
2022-09-30T15:01:35.638Z,99944.56
2022-09-30T15:04:08.592Z,99945.47
2022-09-30T15:06:38.815Z,99950.72
2022-09-30T15:09:18.637Z,99945.41
2022-09-30T15:11:47.356Z,99953.34
2022-09-30T15:14:20.057Z,99957.72
2022-09-30T15:16:52.635Z,99955.97
2022-09-30T15:19:23.030Z,99930.75
2022-09-30T15:22:03.879Z,99950.72
2022-09-30T15:24:35.621Z,99950.00
2022-09-30T15:27:04.446Z,99880.47
2022-09-30T15:29:31.756Z,99965.72
2022-09-30T15:31:59.862Z,99901.38
2022-09-30T15:34:29.208Z,99973.56
2022-09-30T15:37:04.631Z,99949.25
2022-09-30T15:39:52.611Z,99977.09
2022-09-30T15:42:45.938Z,99978.81
2022-09-30T15:45:33.528Z,100001.59
2022-09-30T15:48:06.929Z,100005.09
2022-09-30T15:50:48.109Z,99998.13
2022-09-30T15:53:25.347Z,99953.84
2022-09-30T15:56:30.952Z,100004.22
2022-09-30T15:59:02.766Z,99933.00
2022-09-30T16:01:50.647Z,99952.19
2022-09-30T16:04:17.986Z,100024.47
2022-09-30T16:06:52.529Z,99986.16
2022-09-30T16:09:30.064Z,100014.00
2022-09-30T16:12:03.779Z,100014.03
2022-09-30T16:14:56.257Z,99921.81
2022-09-30T16:17:30.334Z,100015.00
2022-09-30T16:20:14.329Z,100013.22
2022-09-30T16:22:42.258Z,100014.97
2022-09-30T16:25:32.843Z,100030.72
2022-09-30T16:28:14.317Z,100021.16
2022-09-30T16:30:49.422Z,100008.97
2022-09-30T16:33:18.165Z,99941.13
2022-09-30T16:35:51.798Z,100027.34
2022-09-30T16:38:20.675Z,100009.94
2022-09-30T16:40:48.438Z,99985.50
2022-09-30T16:43:17.899Z,100043.91
2022-09-30T16:45:45.862Z,100019.50
2022-09-30T16:48:17.942Z,100023.88
2022-09-30T16:50:52.192Z,100043.97
2022-09-30T16:53:19.731Z,100042.22
2022-09-30T16:55:48.230Z,100037.84
2022-09-30T16:58:15.967Z,100045.72
2022-09-30T17:00:47.471Z,99740.34
2022-09-30T17:03:19.482Z,100032.63
2022-09-30T17:05:53.339Z,100016.97
2022-09-30T17:08:23.089Z,100039.56
2022-09-30T17:10:51.230Z,100040.47
2022-09-30T17:13:21.493Z,100012.59
2022-09-30T17:15:52.144Z,100033.53
2022-09-30T17:18:22.794Z,100042.22
2022-09-30T17:20:53.439Z,100048.31
2022-09-30T17:23:23.357Z,100046.63
2022-09-30T17:25:52.703Z,100019.59
2022-09-30T17:28:21.709Z,100025.72
2022-09-30T17:30:50.627Z,100056.22
2022-09-30T17:33:21.082Z,100025.78
2022-09-30T17:36:12.689Z,100059.66
2022-09-30T17:38:41.248Z,100065.88
2022-09-30T17:41:32.066Z,100052.78
2022-09-30T17:44:03.139Z,100060.59
2022-09-30T17:46:41.409Z,100058.00
2022-09-30T17:49:09.240Z,99923.09
2022-09-30T17:51:38.390Z,100049.25
2022-09-30T17:54:09.228Z,100017.03
2022-09-30T17:56:38.471Z,100051.00
2022-09-30T17:59:05.876Z,100035.31
2022-09-30T18:01:33.466Z,100019.63
2022-09-30T18:04:02.230Z,99991.88
2022-09-30T18:06:30.615Z,100025.75
2022-09-30T18:08:58.977Z,100038.84
2022-09-30T18:11:29.703Z,100012.69
2022-09-30T18:14:01.765Z,99997.91
2022-09-30T18:16:31.803Z,100036.22
2022-09-30T18:19:01.452Z,100051.94
2022-09-30T18:21:30.202Z,99970.94
2022-09-30T18:23:59.099Z,100049.31
2022-09-30T18:26:33.492Z,100027.56
2022-09-30T18:29:04.479Z,99954.44
2022-09-30T18:31:39.146Z,100006.63
2022-09-30T18:34:07.677Z,99979.69
2022-09-30T18:36:35.634Z,99956.19
2022-09-30T18:39:03.321Z,100051.13
2022-09-30T18:41:32.422Z,99963.19
2022-09-30T18:44:02.937Z,100044.13
2022-09-30T18:46:32.223Z,100064.22
2022-09-30T18:48:59.694Z,99934.47
2022-09-30T18:51:27.123Z,100045.09
2022-09-30T18:53:57.911Z,100018.09
2022-09-30T18:56:32.088Z,100065.13
2022-09-30T18:59:01.487Z,99969.34
2022-09-30T19:01:33.282Z,100066.91
2022-09-30T19:04:04.304Z,99972.84
2022-09-30T19:06:32.832Z,100058.19
2022-09-30T19:09:00.191Z,100047.75
2022-09-30T19:11:27.972Z,100068.66
2022-09-30T19:13:58.174Z,100056.47
2022-09-30T19:16:26.299Z,100069.56
2022-09-30T19:18:55.449Z,99973.75
2022-09-30T19:21:22.947Z,100035.56
2022-09-30T19:23:50.446Z,100073.88
2022-09-30T19:26:17.722Z,100075.63
2022-09-30T19:28:45.126Z,100061.69
2022-09-30T19:31:15.833Z,99915.34
2022-09-30T19:33:55.802Z,100038.16
2022-09-30T19:36:27.154Z,100069.56
2022-09-30T19:39:10.164Z,100071.28
2022-09-30T19:41:39.681Z,99913.66
2022-09-30T19:44:06.982Z,100025.13
2022-09-30T19:46:34.626Z,99986.81
2022-09-30T19:49:02.190Z,100010.34
2022-09-30T19:51:30.994Z,100025.16
2022-09-30T19:54:05.975Z,100076.59
2022-09-30T19:56:36.347Z,100044.34
2022-09-30T19:59:04.825Z,100070.47
2022-09-30T20:01:35.117Z,100095.72
2022-09-30T20:04:05.863Z,100070.47
2022-09-30T20:06:34.362Z,100081.81
2022-09-30T20:09:04.529Z,100093.16
2022-09-30T20:11:35.724Z,100082.69
2022-09-30T20:14:24.621Z,100083.56
2022-09-30T20:16:52.506Z,100058.31
2022-09-30T20:19:19.975Z,100026.13
2022-09-30T20:21:47.754Z,100083.59
2022-09-30T20:24:17.015Z,100096.72
2022-09-30T20:26:46.041Z,100067.94
2022-09-30T20:29:15.597Z,100084.47
2022-09-30T20:31:44.126Z,100092.31
2022-09-30T20:34:13.716Z,100104.53
2022-09-30T20:36:41.937Z,100085.31
2022-09-30T20:39:09.721Z,100053.09
2022-09-30T20:41:39.257Z,100107.16
2022-09-30T20:44:09.120Z,100104.53
2022-09-30T20:46:36.157Z,100094.03
2022-09-30T20:49:03.440Z,100112.38
2022-09-30T20:51:31.635Z,100081.84
2022-09-30T20:54:00.030Z,100088.81
2022-09-30T20:56:39.341Z,100088.81
2022-09-30T20:59:17.295Z,100101.91
2022-09-30T21:01:44.517Z,100101.91
2022-09-30T21:04:11.681Z,100091.44
2022-09-30T21:06:38.706Z,100106.25
2022-09-30T21:09:06.017Z,100007.81
2022-09-30T21:11:33.688Z,100107.13
2022-09-30T21:14:01.025Z,100102.78
2022-09-30T21:16:29.697Z,100107.16
2022-09-30T21:18:56.904Z,100063.59
2022-09-30T21:21:25.852Z,100116.78
2022-09-30T21:23:58.861Z,100125.50
2022-09-30T21:26:26.709Z,100110.69
2022-09-30T21:28:54.097Z,100025.28
2022-09-30T21:31:24.999Z,100116.75
2022-09-30T21:33:58.473Z,100098.44
2022-09-30T21:36:27.052Z,100116.75
2022-09-30T21:38:55.098Z,100115.00
2022-09-30T21:41:22.983Z,100095.00
2022-09-30T21:43:50.081Z,100076.69
2022-09-30T21:46:18.638Z,100110.66
2022-09-30T21:48:46.223Z,100108.06
2022-09-30T21:51:14.009Z,100105.41
2022-09-30T21:53:41.936Z,100101.91
2022-09-30T21:56:11.614Z,100095.81
2022-09-30T21:58:38.897Z,100094.97
2022-09-30T22:01:07.361Z,100098.44
2022-09-30T22:03:38.008Z,100080.16
2022-09-30T22:06:09.421Z,100096.69
2022-09-30T22:08:40.798Z,100086.25
2022-09-30T22:11:11.404Z,100102.81
2022-09-30T22:13:40.918Z,100100.19
2022-09-30T22:16:08.589Z,100096.75
2022-09-30T22:18:36.425Z,100078.44
2022-09-30T22:21:07.550Z,100095.88
2022-09-30T22:23:34.542Z,100001.72
2022-09-30T22:26:11.728Z,100102.84
2022-09-30T22:28:39.840Z,100102.00
2022-09-30T22:31:27.879Z,100021.78
2022-09-30T22:34:16.290Z,100088.91
2022-09-30T22:37:02.401Z,100085.44
2022-09-30T22:39:29.941Z,100031.38
2022-09-30T22:41:58.210Z,100046.25
2022-09-30T22:44:28.162Z,100029.66
2022-09-30T22:46:59.642Z,100101.97
2022-09-30T22:49:28.022Z,100104.63
2022-09-30T22:51:56.725Z,100105.50
2022-09-30T22:54:25.439Z,100099.38
2022-09-30T22:56:54.552Z,100091.53
2022-09-30T22:59:23.129Z,100025.28
2022-09-30T23:01:50.262Z,100056.69
2022-09-30T23:04:18.362Z,100097.66
2022-09-30T23:06:51.242Z,100090.66
2022-09-30T23:09:20.835Z,100096.78
2022-09-30T23:11:51.199Z,100095.03
2022-09-30T23:14:18.629Z,100102.88
2022-09-30T23:16:46.225Z,100089.81
2022-09-30T23:19:13.301Z,100090.69
2022-09-30T23:21:40.962Z,100098.53
2022-09-30T23:24:08.131Z,100090.69
2022-09-30T23:26:35.504Z,100086.34
2022-09-30T23:29:05.693Z,100088.09
2022-09-30T23:31:33.887Z,100102.94
2022-09-30T23:34:02.999Z,100106.44
2022-09-30T23:36:35.739Z,100103.78
2022-09-30T23:39:02.929Z,100013.97
2022-09-30T23:41:32.127Z,100088.09
2022-09-30T23:43:59.607Z,100067.16
2022-09-30T23:46:26.685Z,100095.03
2022-09-30T23:48:53.944Z,100069.75
2022-09-30T23:51:20.958Z,100075.88
2022-09-30T23:53:48.030Z,100008.75
2022-09-30T23:56:18.067Z,100099.41
2022-09-30T23:58:46.045Z,100090.69
